Time;durP1;ratioP1;P1;durP2;ratioP2;P2;SDS_P1;SDS_P2;PMS_P1;PMS_P2;Temp;Humidity;BMP_temperature;BMP_pressure;BME280_temperature;BME280_humidity;BME280_pressure;Samples;Min_cycle;Max_cycle;Signal;HPM_P1;HPM_P2
2022/01/01 00:00:00;;;;;;;5.93;5.20;;;9.40;99.90;;;;;;475023;249;27881;-72
2022/01/01 00:02:01;;;;;;;6.00;5.00;;;9.40;99.90;;;;;;474977;249;27884;-72
2022/01/01 00:04:02;;;;;;;7.40;4.70;;;9.40;99.90;;;;;;475002;250;27678;-72
2022/01/01 00:06:03;;;;;;;5.27;4.77;;;9.40;99.90;;;;;;474997;249;27892;-71
2022/01/01 00:08:07;;;;;;;5.90;4.83;;;9.40;99.90;;;;;;474995;249;27803;-71
2022/01/01 00:10:06;;;;;;;5.90;4.93;;;9.40;99.90;;;;;;474864;250;27886;-72
2022/01/01 00:12:07;;;;;;;8.73;6.50;;;9.40;99.90;;;;;;474991;249;28291;-71
2022/01/01 00:14:08;;;;;;;7.13;5.90;;;9.30;99.90;;;;;;475015;250;28211;-71
2022/01/01 00:16:10;;;;;;;7.53;5.93;;;9.30;99.90;;;;;;475005;250;27692;-71
2022/01/01 00:18:11;;;;;;;8.43;6.53;;;9.30;99.90;;;;;;474980;249;27998;-71
2022/01/01 00:20:12;;;;;;;7.53;5.87;;;9.30;99.90;;;;;;474993;249;29530;-72
2022/01/01 00:22:13;;;;;;;7.63;6.20;;;9.30;99.90;;;;;;475017;250;28065;-71
2022/01/01 00:24:15;;;;;;;9.37;6.67;;;9.30;99.90;;;;;;475686;249;28342;-71
2022/01/01 00:26:16;;;;;;;8.87;6.43;;;9.30;99.90;;;;;;484037;244;28521;-71
2022/01/01 00:28:17;;;;;;;7.00;5.97;;;9.30;99.90;;;;;;484072;246;28255;-71
2022/01/01 00:30:18;;;;;;;8.50;6.30;;;9.30;99.90;;;;;;484025;246;28449;-72
2022/01/01 00:32:20;;;;;;;9.90;6.80;;;9.30;99.90;;;;;;484069;245;27831;-71
2022/01/01 00:34:21;;;;;;;9.23;7.10;;;9.30;99.90;;;;;;484095;245;27887;-71
2022/01/01 00:36:22;;;;;;;8.23;6.87;;;9.30;99.90;;;;;;484097;246;27980;-71
2022/01/01 00:38:23;;;;;;;9.23;7.13;;;9.30;99.90;;;;;;484104;246;28092;-71
2022/01/01 00:40:25;;;;;;;8.53;7.10;;;9.30;99.90;;;;;;484086;246;28124;-71
2022/01/01 00:42:26;;;;;;;9.20;6.80;;;9.30;99.90;;;;;;484099;246;28040;-71
2022/01/01 00:44:30;;;;;;;8.23;6.77;;;9.30;99.90;;;;;;482827;245;28583;-71
2022/01/01 00:46:28;;;;;;;9.07;6.33;;;9.30;99.90;;;;;;476194;249;28118;-71
2022/01/01 00:48:30;;;;;;;10.77;6.93;;;9.30;99.90;;;;;;475991;245;27797;-71
2022/01/01 00:50:31;;;;;;;9.50;7.40;;;9.30;99.90;;;;;;475022;245;27964;-71
2022/01/01 00:52:32;;;;;;;8.10;6.50;;;9.30;99.90;;;;;;481451;246;27795;-71
2022/01/01 00:54:33;;;;;;;7.70;6.27;;;9.30;99.90;;;;;;482374;246;28006;-71
2022/01/01 00:56:35;;;;;;;7.70;6.10;;;9.30;99.90;;;;;;482750;246;27832;-71
2022/01/01 00:58:36;;;;;;;8.20;6.57;;;9.40;99.90;;;;;;482738;246;28243;-71
2022/01/01 01:00:37;;;;;;;6.90;5.57;;;9.40;99.90;;;;;;482719;246;28585;-72
2022/01/01 01:02:38;;;;;;;8.97;5.90;;;9.40;99.90;;;;;;482744;246;28899;-71
2022/01/01 01:04:40;;;;;;;11.77;7.37;;;9.40;99.90;;;;;;482710;246;28367;-71
2022/01/01 01:06:41;;;;;;;8.67;5.73;;;9.40;99.90;;;;;;482722;246;27979;-71
2022/01/01 01:08:42;;;;;;;9.13;6.60;;;9.40;99.90;;;;;;482738;246;27649;-71
2022/01/01 01:10:48;;;;;;;9.10;6.20;;;9.40;99.90;;;;;;482744;246;27696;-71
2022/01/01 01:12:48;;;;;;;6.23;5.10;;;9.40;99.90;;;;;;482706;246;27665;-72
2022/01/01 01:14:49;;;;;;;7.87;6.00;;;9.40;99.90;;;;;;482742;246;28011;-72
2022/01/01 01:16:50;;;;;;;8.77;5.90;;;9.40;99.90;;;;;;482734;246;27597;-72
2022/01/01 01:18:53;;;;;;;9.03;6.20;;;9.40;99.90;;;;;;482753;246;28018;-72
2022/01/01 01:20:53;;;;;;;7.40;5.37;;;9.50;99.90;;;;;;482673;246;28048;-71
2022/01/01 01:22:54;;;;;;;6.23;4.93;;;9.50;99.90;;;;;;482734;246;27882;-71
2022/01/01 01:24:56;;;;;;;6.70;5.30;;;9.50;99.90;;;;;;482716;246;27970;-71
2022/01/01 01:27:01;;;;;;;7.30;5.43;;;9.50;99.90;;;;;;482669;246;28325;-71
2022/01/01 01:28:58;;;;;;;6.80;5.10;;;9.50;99.90;;;;;;482608;246;28532;-71
2022/01/01 01:30:59;;;;;;;6.87;5.43;;;9.40;99.90;;;;;;482747;246;28416;-72
2022/01/01 01:33:00;;;;;;;7.30;5.63;;;9.50;99.90;;;;;;482745;246;28399;-71
2022/01/01 01:35:01;;;;;;;9.90;6.20;;;9.50;99.90;;;;;;482758;246;28267;-71
2022/01/01 01:37:03;;;;;;;8.17;5.77;;;9.50;99.90;;;;;;482740;246;28357;-72
2022/01/01 01:39:04;;;;;;;9.53;6.80;;;9.40;99.90;;;;;;482767;246;27977;-71
2022/01/01 01:41:05;;;;;;;8.57;6.00;;;9.50;99.90;;;;;;482716;246;27975;-71
2022/01/01 01:43:10;;;;;;;10.10;6.63;;;9.50;99.90;;;;;;482755;246;27788;-71
2022/01/01 01:45:12;;;;;;;8.40;6.20;;;9.50;99.90;;;;;;482582;246;28114;-71
2022/01/01 01:47:16;;;;;;;8.70;6.20;;;9.50;99.90;;;;;;482569;246;27536;-71
2022/01/01 01:49:16;;;;;;;11.47;7.00;;;9.50;99.90;;;;;;482700;246;27547;-71
2022/01/01 01:51:17;;;;;;;8.20;6.03;;;9.50;99.90;;;;;;482737;246;28248;-71
2022/01/01 01:53:19;;;;;;;8.37;6.27;;;9.50;99.90;;;;;;482698;246;28035;-72
2022/01/01 01:55:20;;;;;;;9.47;6.60;;;9.60;99.90;;;;;;482724;246;28439;-72
2022/01/01 01:57:21;;;;;;;10.93;7.50;;;9.50;99.90;;;;;;482737;246;28330;-72
2022/01/01 01:59:22;;;;;;;10.50;7.40;;;9.50;99.90;;;;;;482722;246;27809;-71
2022/01/01 02:01:24;;;;;;;11.30;7.40;;;9.50;99.90;;;;;;482745;246;27847;-71
2022/01/01 02:03:25;;;;;;;9.10;6.73;;;9.60;99.90;;;;;;482723;246;27671;-72
2022/01/01 02:05:26;;;;;;;8.67;6.00;;;9.50;99.90;;;;;;482742;246;27976;-72
2022/01/01 02:07:27;;;;;;;8.60;6.10;;;9.50;99.90;;;;;;482731;246;27870;-72
2022/01/01 02:09:29;;;;;;;8.73;6.47;;;9.60;99.90;;;;;;482726;246;27890;-71
2022/01/01 02:11:30;;;;;;;9.00;6.73;;;9.60;99.90;;;;;;482720;246;27749;-72
2022/01/01 02:13:47;;;;;;;7.57;5.87;;;9.60;99.90;;;;;;482712;246;28026;-71
2022/01/01 02:17:52;;;;;;;9.87;7.13;;;9.60;99.90;;;;;;482724;246;28455;-71
2022/01/01 02:20:00;;;;;;;9.23;6.87;;;9.60;99.90;;;;;;482709;246;28475;-72
2022/01/01 02:21:54;;;;;;;11.73;7.27;;;9.50;99.90;;;;;;482334;246;28496;-71
2022/01/01 02:23:59;;;;;;;9.97;6.80;;;9.60;99.90;;;;;;482740;246;28110;-71
2022/01/01 02:25:59;;;;;;;11.77;7.67;;;9.50;99.90;;;;;;482684;246;28364;-71
2022/01/01 02:28:01;;;;;;;9.80;7.40;;;9.50;99.90;;;;;;482745;246;27509;-72
2022/01/01 02:30:02;;;;;;;14.00;9.00;;;9.50;99.90;;;;;;482729;245;27628;-71
2022/01/01 02:32:04;;;;;;;13.40;9.10;;;9.50;99.90;;;;;;482727;246;27919;-71
2022/01/01 02:34:04;;;;;;;11.83;8.20;;;9.50;99.90;;;;;;482740;246;27982;-71
2022/01/01 02:36:06;;;;;;;10.63;7.83;;;9.50;99.90;;;;;;482717;246;27954;-71
2022/01/01 02:38:07;;;;;;;8.30;6.40;;;9.50;99.90;;;;;;482768;246;27749;-71
2022/01/01 02:40:08;;;;;;;9.00;6.47;;;9.50;99.90;;;;;;482749;246;27761;-71
2022/01/01 02:42:11;;;;;;;9.50;7.40;;;9.50;99.90;;;;;;482732;246;28343;-71
2022/01/01 02:44:11;;;;;;;10.20;6.90;;;9.50;99.90;;;;;;482686;246;27886;-71
2022/01/01 02:46:12;;;;;;;10.30;6.97;;;9.50;99.90;;;;;;482742;246;28118;-71
2022/01/01 02:48:13;;;;;;;10.20;7.33;;;9.50;99.90;;;;;;482734;246;28282;-71
2022/01/01 02:50:14;;;;;;;9.20;7.07;;;9.50;99.90;;;;;;482705;246;28412;-71
2022/01/01 02:52:16;;;;;;;9.53;6.53;;;9.50;99.90;;;;;;482705;246;28332;-71
2022/01/01 02:54:17;;;;;;;9.70;6.90;;;9.50;99.90;;;;;;482732;246;28066;-71
2022/01/01 02:56:18;;;;;;;9.10;6.97;;;9.50;99.90;;;;;;482711;246;27997;-71
2022/01/01 02:58:19;;;;;;;8.70;6.37;;;9.50;99.90;;;;;;482750;246;27703;-71
2022/01/01 03:00:21;;;;;;;8.50;7.07;;;9.50;99.90;;;;;;482734;246;27612;-71
2022/01/01 03:02:22;;;;;;;8.97;6.63;;;9.50;99.90;;;;;;482750;246;28002;-71
2022/01/01 03:04:23;;;;;;;9.77;6.90;;;9.50;99.90;;;;;;482755;246;27989;-71
2022/01/01 03:06:27;;;;;;;8.90;6.43;;;9.50;99.90;;;;;;482541;246;27886;-72
2022/01/01 03:08:26;;;;;;;8.67;6.70;;;9.50;99.90;;;;;;482653;246;28160;-71
2022/01/01 03:10:27;;;;;;;9.20;6.63;;;9.50;99.90;;;;;;482686;246;27789;-71
2022/01/01 03:12:28;;;;;;;11.07;7.07;;;9.50;99.90;;;;;;482715;246;27760;-71
2022/01/01 03:14:29;;;;;;;8.47;6.30;;;9.40;99.90;;;;;;482747;246;27868;-71
2022/01/01 03:16:31;;;;;;;10.43;6.47;;;9.50;99.90;;;;;;482727;246;27918;-71
2022/01/01 03:18:32;;;;;;;10.10;7.00;;;9.50;99.90;;;;;;482719;246;28058;-71
2022/01/01 03:20:33;;;;;;;10.07;6.40;;;9.50;99.90;;;;;;482694;246;27902;-71
2022/01/01 03:22:34;;;;;;;8.07;6.10;;;9.50;99.90;;;;;;482713;246;28567;-72
2022/01/01 03:24:36;;;;;;;8.73;6.17;;;9.50;99.90;;;;;;482741;246;28260;-71
2022/01/01 03:26:37;;;;;;;10.00;6.87;;;9.50;99.90;;;;;;482678;246;28374;-71
2022/01/01 03:28:38;;;;;;;10.33;7.17;;;9.60;99.90;;;;;;482734;246;28700;-72
2022/01/01 03:30:39;;;;;;;10.63;7.17;;;9.60;99.90;;;;;;482717;246;27658;-71
2022/01/01 03:32:41;;;;;;;9.97;7.20;;;9.50;99.90;;;;;;482705;246;27563;-71
2022/01/01 03:34:42;;;;;;;9.30;6.80;;;9.50;99.90;;;;;;482728;246;27947;-71
2022/01/01 03:36:43;;;;;;;11.70;6.90;;;9.50;99.90;;;;;;482714;246;28000;-71
2022/01/01 03:38:44;;;;;;;9.30;7.33;;;9.60;99.90;;;;;;482714;246;27870;-71
2022/01/01 03:40:46;;;;;;;10.67;7.60;;;9.60;99.90;;;;;;482697;246;27902;-71
2022/01/01 03:42:47;;;;;;;10.87;7.50;;;9.50;99.90;;;;;;482726;246;27910;-71
2022/01/01 03:44:48;;;;;;;10.73;7.73;;;9.50;99.90;;;;;;482721;246;28006;-71
2022/01/01 03:46:49;;;;;;;10.10;7.70;;;9.50;99.90;;;;;;482734;246;27682;-71
2022/01/01 03:48:51;;;;;;;9.07;6.27;;;9.60;99.90;;;;;;482704;246;27872;-71
2022/01/01 03:50:52;;;;;;;11.53;7.90;;;9.60;99.90;;;;;;482700;246;28447;-71
2022/01/01 03:52:53;;;;;;;10.13;7.20;;;9.50;99.90;;;;;;482716;246;28506;-71
2022/01/01 03:54:54;;;;;;;12.50;7.80;;;9.50;99.90;;;;;;482730;246;28375;-72
2022/01/01 03:56:56;;;;;;;8.57;6.70;;;9.60;99.90;;;;;;482726;246;28041;-71
2022/01/01 03:58:57;;;;;;;10.60;7.63;;;9.50;99.90;;;;;;482722;246;27716;-72
2022/01/01 04:00:58;;;;;;;11.30;7.63;;;9.50;99.90;;;;;;482722;246;28411;-72
2022/01/01 04:02:59;;;;;;;11.00;7.40;;;9.60;99.90;;;;;;482718;246;27807;-71
2022/01/01 04:05:01;;;;;;;11.20;8.10;;;9.50;99.90;;;;;;482725;246;27978;-72
2022/01/01 04:07:04;;;;;;;12.30;8.30;;;9.50;99.90;;;;;;482645;246;28052;-71
2022/01/01 04:09:03;;;;;;;11.60;7.27;;;9.50;99.90;;;;;;482659;246;27849;-71
2022/01/01 04:11:05;;;;;;;9.93;7.10;;;9.50;99.90;;;;;;482741;246;27443;-71
2022/01/01 04:13:06;;;;;;;10.27;7.47;;;9.50;99.90;;;;;;482737;246;27926;-71
2022/01/01 04:15:07;;;;;;;11.63;7.50;;;9.50;99.90;;;;;;482670;246;27995;-71
2022/01/01 04:17:10;;;;;;;9.07;6.33;;;9.50;99.90;;;;;;482703;246;28838;-71
2022/01/01 04:19:10;;;;;;;8.60;6.47;;;9.50;99.90;;;;;;482607;246;28532;-72
2022/01/01 04:21:11;;;;;;;10.10;6.23;;;9.50;99.90;;;;;;482666;246;28371;-71
2022/01/01 04:23:12;;;;;;;9.30;7.13;;;9.50;99.90;;;;;;482709;246;28895;-72
2022/01/01 04:25:13;;;;;;;8.80;6.70;;;9.50;99.90;;;;;;482725;246;28438;-72
2022/01/01 04:27:15;;;;;;;9.53;6.27;;;9.50;99.90;;;;;;482713;246;27885;-72
2022/01/01 04:29:16;;;;;;;9.90;6.93;;;9.60;99.90;;;;;;482684;246;28092;-72
2022/01/01 04:31:17;;;;;;;9.20;6.73;;;9.50;99.90;;;;;;482724;246;28018;-72
2022/01/01 04:33:18;;;;;;;9.23;6.57;;;9.50;99.90;;;;;;482793;246;27674;-72
2022/01/01 04:35:19;;;;;;;10.90;7.30;;;9.50;99.90;;;;;;482731;246;27729;-72
2022/01/01 04:37:21;;;;;;;10.10;7.17;;;9.50;99.90;;;;;;482782;246;27637;-71
2022/01/01 04:39:22;;;;;;;9.90;7.40;;;9.50;99.90;;;;;;482713;246;27768;-72
2022/01/01 04:41:23;;;;;;;9.17;6.57;;;9.50;99.90;;;;;;482735;246;28016;-72
2022/01/01 04:43:24;;;;;;;11.50;6.77;;;9.50;99.90;;;;;;482764;246;27990;-72
2022/01/01 04:45:26;;;;;;;9.73;7.10;;;9.50;99.90;;;;;;482727;246;28080;-72
2022/01/01 04:47:27;;;;;;;11.77;7.20;;;9.50;99.90;;;;;;482767;246;28020;-72
2022/01/01 04:49:28;;;;;;;9.93;6.93;;;9.50;99.90;;;;;;482708;246;27692;-72
2022/01/01 04:51:29;;;;;;;8.57;6.53;;;9.60;99.90;;;;;;482732;246;28340;-72
2022/01/01 04:53:31;;;;;;;8.07;6.40;;;9.60;99.90;;;;;;482748;246;28459;-72
2022/01/01 04:55:33;;;;;;;10.47;6.60;;;9.60;99.90;;;;;;482710;246;29127;-72
2022/01/01 04:57:33;;;;;;;8.07;6.53;;;9.50;99.90;;;;;;482725;246;28542;-72
2022/01/01 04:59:34;;;;;;;10.60;7.40;;;9.60;99.90;;;;;;482741;246;27985;-72
2022/01/01 05:01:36;;;;;;;10.50;6.83;;;9.50;99.90;;;;;;482724;246;27860;-72
2022/01/01 05:03:37;;;;;;;12.60;7.73;;;9.50;99.90;;;;;;482750;246;27818;-72
2022/01/01 05:05:38;;;;;;;11.13;8.10;;;9.50;99.90;;;;;;482731;246;28181;-72
2022/01/01 05:07:40;;;;;;;11.10;7.80;;;9.50;99.90;;;;;;482739;246;28027;-72
2022/01/01 05:09:41;;;;;;;12.07;7.60;;;9.50;99.90;;;;;;482732;246;27876;-72
2022/01/01 05:11:42;;;;;;;10.87;7.97;;;9.50;99.90;;;;;;482702;246;27787;-72
2022/01/01 05:13:43;;;;;;;10.00;7.13;;;9.50;99.90;;;;;;482745;246;27888;-71
2022/01/01 05:15:45;;;;;;;10.67;7.87;;;9.50;99.90;;;;;;482744;246;27739;-71
2022/01/01 05:17:46;;;;;;;9.03;6.67;;;9.50;99.90;;;;;;482730;246;29164;-72
2022/01/01 05:19:47;;;;;;;10.57;6.83;;;9.50;99.90;;;;;;482742;246;28352;-72
2022/01/01 05:21:50;;;;;;;8.97;6.67;;;9.50;99.90;;;;;;482733;246;28509;-71
2022/01/01 05:23:50;;;;;;;10.63;6.90;;;9.50;99.90;;;;;;482684;246;29155;-72
2022/01/01 05:25:51;;;;;;;11.43;7.80;;;9.50;99.90;;;;;;482728;246;28122;-72
2022/01/01 05:27:52;;;;;;;9.17;6.83;;;9.50;99.90;;;;;;482745;246;28006;-72
2022/01/01 05:29:53;;;;;;;9.40;6.77;;;9.50;99.90;;;;;;482751;246;27869;-72
2022/01/01 05:31:55;;;;;;;12.40;8.23;;;9.60;99.90;;;;;;482721;246;27787;-72
2022/01/01 05:33:56;;;;;;;12.60;7.50;;;9.50;99.90;;;;;;482706;246;27749;-72
2022/01/01 05:35:57;;;;;;;10.60;7.40;;;9.50;99.90;;;;;;482708;246;27672;-71
2022/01/01 05:37:58;;;;;;;9.20;6.60;;;9.50;99.90;;;;;;482728;246;28077;-72
2022/01/01 05:40:00;;;;;;;9.57;7.40;;;9.50;99.90;;;;;;482764;246;27891;-72
2022/01/01 05:42:01;;;;;;;12.90;7.47;;;9.50;99.90;;;;;;482734;246;28013;-72
2022/01/01 05:44:02;;;;;;;11.00;8.00;;;9.50;99.90;;;;;;482712;246;28067;-72
2022/01/01 05:46:03;;;;;;;12.57;7.50;;;9.50;99.90;;;;;;482715;246;27885;-72
2022/01/01 05:48:05;;;;;;;10.97;8.17;;;9.50;99.90;;;;;;482687;246;28453;-72
2022/01/01 05:50:06;;;;;;;12.37;7.80;;;9.50;99.90;;;;;;482578;246;28557;-72
2022/01/01 05:52:08;;;;;;;13.23;7.50;;;9.50;99.90;;;;;;482570;246;28466;-72
2022/01/01 05:54:08;;;;;;;11.77;7.27;;;9.50;99.90;;;;;;482390;246;28431;-72
2022/01/01 05:56:10;;;;;;;11.70;7.77;;;9.50;99.90;;;;;;482621;246;27912;-72
2022/01/01 05:58:11;;;;;;;8.83;7.60;;;9.50;99.90;;;;;;482726;246;28007;-72
2022/01/01 06:00:13;;;;;;;10.47;7.50;;;9.40;99.90;;;;;;482737;246;27924;-72
2022/01/01 06:02:13;;;;;;;8.23;6.60;;;9.40;99.90;;;;;;482696;246;27927;-72
2022/01/01 06:04:15;;;;;;;10.30;7.97;;;9.40;99.90;;;;;;482729;246;27872;-72
2022/01/01 06:06:16;;;;;;;10.40;7.17;;;9.40;99.90;;;;;;482741;246;28000;-72
2022/01/01 06:08:17;;;;;;;8.70;6.80;;;9.40;99.90;;;;;;482710;246;27896;-72
2022/01/01 06:10:18;;;;;;;8.60;6.93;;;9.40;99.90;;;;;;482725;246;27887;-72
2022/01/01 06:12:20;;;;;;;10.63;7.20;;;9.40;99.90;;;;;;482737;246;27654;-72
2022/01/01 06:14:21;;;;;;;9.60;6.90;;;9.40;99.90;;;;;;482711;246;27792;-72
2022/01/01 06:16:22;;;;;;;10.00;7.30;;;9.40;99.90;;;;;;482716;246;28494;-72
2022/01/01 06:18:23;;;;;;;11.50;7.90;;;9.40;99.90;;;;;;482751;246;28233;-71
2022/01/01 06:20:25;;;;;;;12.10;8.03;;;9.40;99.90;;;;;;482726;246;28545;-72
2022/01/01 06:22:26;;;;;;;9.50;7.37;;;9.40;99.90;;;;;;482756;246;28208;-72
2022/01/01 06:24:27;;;;;;;10.87;7.50;;;9.30;99.90;;;;;;482732;246;28041;-72
2022/01/01 06:26:28;;;;;;;9.57;6.40;;;9.40;99.90;;;;;;482751;246;28082;-71
2022/01/01 06:28:30;;;;;;;8.60;6.60;;;9.30;99.90;;;;;;482772;246;27978;-72
2022/01/01 06:30:33;;;;;;;7.63;5.80;;;9.30;99.90;;;;;;482712;246;27757;-72
2022/01/01 06:32:32;;;;;;;10.23;6.23;;;9.30;99.90;;;;;;482619;246;27888;-72
2022/01/01 06:34:33;;;;;;;8.13;5.80;;;9.30;99.90;;;;;;482733;246;27793;-72
2022/01/01 06:36:35;;;;;;;8.00;5.63;;;9.30;99.90;;;;;;482740;246;27508;-72
2022/01/01 06:38:36;;;;;;;6.50;5.27;;;9.30;99.90;;;;;;482747;246;27978;-72
2022/01/01 06:40:39;;;;;;;6.40;5.57;;;9.30;99.90;;;;;;482706;246;27871;-72
2022/01/01 06:42:38;;;;;;;7.43;5.90;;;9.30;99.90;;;;;;482644;246;27897;-72
2022/01/01 06:44:42;;;;;;;8.93;6.37;;;9.30;99.90;;;;;;482747;246;27943;-72
2022/01/01 06:46:41;;;;;;;8.03;6.30;;;9.30;99.90;;;;;;482660;246;27871;-72
2022/01/01 06:48:42;;;;;;;8.20;6.03;;;9.30;99.90;;;;;;482749;246;28559;-72
2022/01/01 06:50:43;;;;;;;9.00;6.10;;;9.30;99.90;;;;;;482706;246;27881;-72
2022/01/01 06:52:45;;;;;;;8.60;6.40;;;9.30;99.90;;;;;;482753;246;27824;-72
2022/01/01 06:54:46;;;;;;;9.97;7.47;;;9.30;99.90;;;;;;482732;246;27882;-72
2022/01/01 06:56:47;;;;;;;10.87;7.50;;;9.30;99.90;;;;;;482737;246;27984;-72
2022/01/01 06:58:48;;;;;;;9.97;7.20;;;9.30;99.90;;;;;;482758;246;27879;-72
2022/01/01 07:00:50;;;;;;;9.23;6.73;;;9.20;99.90;;;;;;482695;246;27674;-72
2022/01/01 07:02:51;;;;;;;9.10;6.60;;;9.20;99.90;;;;;;482726;246;27946;-72
2022/01/01 07:04:52;;;;;;;7.63;6.33;;;9.30;99.90;;;;;;482760;246;28029;-72
2022/01/01 07:06:53;;;;;;;7.27;5.47;;;9.30;99.90;;;;;;482750;246;27969;-72
2022/01/01 07:08:55;;;;;;;6.87;5.10;;;9.30;99.90;;;;;;482739;246;27938;-72
2022/01/01 07:10:56;;;;;;;8.13;6.60;;;9.30;99.90;;;;;;482697;246;27477;-72
2022/01/01 07:12:57;;;;;;;8.80;6.10;;;9.20;99.90;;;;;;482726;246;28015;-72
2022/01/01 07:14:58;;;;;;;7.93;5.93;;;9.30;99.90;;;;;;482693;246;28318;-72
2022/01/01 07:17:00;;;;;;;8.13;5.67;;;9.30;99.90;;;;;;482722;246;28458;-72
2022/01/01 07:19:01;;;;;;;5.80;4.83;;;9.30;99.90;;;;;;482717;246;28496;-72
2022/01/01 07:21:02;;;;;;;5.87;4.53;;;9.30;99.90;;;;;;482724;246;28367;-72
2022/01/01 07:23:03;;;;;;;7.03;4.83;;;9.30;99.90;;;;;;482733;246;28442;-72
2022/01/01 07:25:05;;;;;;;7.00;5.20;;;9.20;99.90;;;;;;482702;246;28010;-72
2022/01/01 07:27:06;;;;;;;7.77;6.00;;;9.30;99.90;;;;;;482730;246;27973;-72
2022/01/01 07:29:07;;;;;;;8.20;5.80;;;9.30;99.90;;;;;;482741;246;28104;-72
2022/01/01 07:31:08;;;;;;;6.03;5.43;;;9.30;99.90;;;;;;482726;246;27818;-72
2022/01/01 07:33:10;;;;;;;7.77;5.93;;;9.30;99.90;;;;;;482726;246;27982;-72
2022/01/01 07:35:11;;;;;;;7.30;5.30;;;9.30;99.90;;;;;;482733;246;27854;-71
2022/01/01 07:37:12;;;;;;;8.20;5.80;;;9.30;99.90;;;;;;482730;246;27953;-72
2022/01/01 07:39:13;;;;;;;5.37;4.80;;;9.30;99.90;;;;;;482719;246;27851;-72
2022/01/01 07:41:15;;;;;;;7.67;6.00;;;9.30;99.90;;;;;;482686;246;27758;-72
2022/01/01 07:43:16;;;;;;;10.37;7.23;;;9.30;99.90;;;;;;482721;246;27871;-72
2022/01/01 07:45:17;;;;;;;9.90;6.90;;;9.30;99.90;;;;;;482729;246;28035;-72
2022/01/01 07:47:18;;;;;;;8.20;6.50;;;9.30;99.90;;;;;;482740;246;27851;-72
2022/01/01 07:49:20;;;;;;;8.50;5.70;;;9.30;99.90;;;;;;482770;246;27527;-72
2022/01/01 07:51:21;;;;;;;7.97;6.07;;;9.30;99.90;;;;;;482745;246;28127;-72
2022/01/01 07:53:22;;;;;;;8.10;6.40;;;9.30;99.90;;;;;;482741;246;29139;-72
2022/01/01 07:55:23;;;;;;;8.57;5.93;;;9.30;99.90;;;;;;482753;246;28358;-72
2022/01/01 07:57:25;;;;;;;7.83;6.00;;;9.30;99.90;;;;;;482729;246;28464;-72
2022/01/01 07:59:26;;;;;;;8.30;6.40;;;9.40;99.90;;;;;;482757;246;28646;-72
2022/01/01 08:01:27;;;;;;;7.13;5.63;;;9.40;99.90;;;;;;482762;246;28365;-72
2022/01/01 08:03:28;;;;;;;7.53;5.37;;;9.40;99.90;;;;;;482756;246;27906;-72
2022/01/01 08:05:30;;;;;;;9.27;5.50;;;9.40;99.90;;;;;;482776;246;28005;-72
2022/01/01 08:07:31;;;;;;;7.83;5.10;;;9.40;99.90;;;;;;482765;246;27973;-72
2022/01/01 08:09:32;;;;;;;7.03;5.53;;;9.50;99.90;;;;;;482784;246;27791;-72
2022/01/01 08:11:33;;;;;;;8.93;5.87;;;9.50;99.90;;;;;;482756;246;27885;-72
2022/01/01 08:13:36;;;;;;;8.17;6.17;;;9.50;99.90;;;;;;482717;246;27984;-72
2022/01/01 08:15:36;;;;;;;7.53;5.70;;;9.50;99.90;;;;;;482734;246;27535;-72
2022/01/01 08:17:37;;;;;;;6.83;5.37;;;9.50;99.90;;;;;;482735;246;27947;-72
2022/01/01 08:19:38;;;;;;;9.63;6.63;;;9.50;99.90;;;;;;482758;246;27986;-72
2022/01/01 08:21:40;;;;;;;7.03;5.60;;;9.60;99.90;;;;;;482734;246;28462;-72
2022/01/01 08:23:41;;;;;;;6.90;5.80;;;9.60;99.90;;;;;;482733;246;28052;-72
2022/01/01 08:25:42;;;;;;;9.23;6.10;;;9.60;99.90;;;;;;482728;246;28270;-72
2022/01/01 08:27:43;;;;;;;7.37;5.70;;;9.60;99.90;;;;;;482729;246;27891;-72
2022/01/01 08:29:45;;;;;;;7.83;6.13;;;9.70;99.90;;;;;;482754;246;27845;-72
2022/01/01 08:31:46;;;;;;;9.83;5.67;;;9.70;99.90;;;;;;482757;246;28432;-72
2022/01/01 08:33:47;;;;;;;6.00;5.37;;;9.70;99.90;;;;;;482735;246;28618;-72
2022/01/01 08:35:48;;;;;;;6.33;4.93;;;9.70;99.90;;;;;;482778;246;28564;-72
2022/01/01 08:37:50;;;;;;;6.47;4.70;;;9.70;99.90;;;;;;482756;246;28458;-72
2022/01/01 08:39:51;;;;;;;8.67;5.10;;;9.80;99.90;;;;;;482762;246;28489;-72
2022/01/01 08:41:52;;;;;;;6.73;5.30;;;9.80;99.90;;;;;;482731;246;28426;-72
2022/01/01 08:43:53;;;;;;;5.00;4.50;;;9.80;99.90;;;;;;482714;246;27767;-72
2022/01/01 08:45:54;;;;;;;6.40;5.13;;;9.80;99.90;;;;;;482772;246;27532;-72
2022/01/01 08:47:56;;;;;;;6.00;4.43;;;9.90;99.90;;;;;;482736;246;27970;-72
2022/01/01 08:49:57;;;;;;;8.07;5.83;;;10.00;99.90;;;;;;482756;246;28003;-72
2022/01/01 08:51:59;;;;;;;14.37;6.57;;;10.00;99.90;;;;;;482752;246;27948;-72
2022/01/01 08:53:59;;;;;;;7.83;5.40;;;10.00;99.90;;;;;;482722;246;27925;-72
2022/01/01 08:56:02;;;;;;;10.80;5.87;;;10.00;99.90;;;;;;482742;246;28053;-72
2022/01/01 08:58:02;;;;;;;6.70;5.23;;;10.00;99.90;;;;;;482705;246;28112;-72
2022/01/01 09:00:03;;;;;;;7.70;5.30;;;10.00;99.90;;;;;;482740;246;27979;-72
2022/01/01 09:02:05;;;;;;;7.70;5.67;;;10.10;99.90;;;;;;482705;246;28294;-72
2022/01/01 09:04:06;;;;;;;5.80;4.50;;;10.10;99.90;;;;;;482718;246;28357;-72
2022/01/01 09:06:07;;;;;;;7.10;4.73;;;10.10;99.90;;;;;;482733;246;28515;-71
2022/01/01 09:08:08;;;;;;;6.90;5.20;;;10.10;99.90;;;;;;482675;246;28222;-72
2022/01/01 09:10:10;;;;;;;9.80;5.40;;;10.10;99.90;;;;;;482702;246;27894;-72
2022/01/01 09:12:11;;;;;;;8.97;5.33;;;10.10;99.90;;;;;;476705;245;28048;-72
2022/01/01 09:14:12;;;;;;;7.10;5.30;;;10.20;99.90;;;;;;475346;250;27687;-72
2022/01/01 09:16:14;;;;;;;7.60;5.23;;;10.20;99.90;;;;;;475343;250;27992;-72
2022/01/01 09:18:15;;;;;;;6.10;4.90;;;10.20;99.90;;;;;;475392;250;27905;-72
2022/01/01 09:20:16;;;;;;;8.10;4.90;;;10.30;99.90;;;;;;475337;250;27934;-72
2022/01/01 09:22:17;;;;;;;7.40;4.50;;;10.30;99.90;;;;;;475371;250;28449;-72
2022/01/01 09:24:18;;;;;;;6.80;4.73;;;10.40;99.90;;;;;;475344;250;28640;-75
2022/01/01 09:26:21;;;;;;;6.43;4.30;;;10.40;99.90;;;;;;475348;250;28435;-75
2022/01/01 09:28:21;;;;;;;5.30;4.20;;;10.50;99.90;;;;;;475309;250;27922;-76
2022/01/01 09:30:23;;;;;;;7.83;4.50;;;10.50;99.90;;;;;;475335;250;27814;-75
2022/01/01 09:32:23;;;;;;;5.10;4.43;;;10.50;99.90;;;;;;475883;247;27767;-75
2022/01/01 09:34:25;;;;;;;7.23;3.80;;;10.50;99.90;;;;;;477168;249;28195;-75
2022/01/01 09:36:27;;;;;;;5.57;4.30;;;10.50;99.90;;;;;;477175;249;28037;-76
2022/01/01 09:38:27;;;;;;;3.80;3.40;;;10.60;99.90;;;;;;477171;249;27918;-76
2022/01/01 09:40:29;;;;;;;5.17;3.80;;;10.50;99.90;;;;;;477194;249;27936;-76
2022/01/01 09:42:30;;;;;;;4.17;3.77;;;10.50;99.90;;;;;;477146;249;27646;-75
2022/01/01 09:44:31;;;;;;;7.27;4.07;;;10.50;99.90;;;;;;477178;249;28170;-75
2022/01/01 09:46:33;;;;;;;3.60;3.30;;;10.50;99.90;;;;;;477214;249;28386;-75
2022/01/01 09:48:33;;;;;;;4.70;3.60;;;10.50;99.90;;;;;;477175;249;28218;-76
2022/01/01 09:50:35;;;;;;;3.60;3.30;;;10.60;99.90;;;;;;477235;249;28484;-76
2022/01/01 09:52:36;;;;;;;4.30;3.60;;;10.60;99.90;;;;;;477267;249;28429;-76
2022/01/01 09:54:37;;;;;;;3.73;2.93;;;10.60;99.90;;;;;;477653;249;28121;-76
2022/01/01 09:56:39;;;;;;;4.10;3.20;;;10.60;99.90;;;;;;477625;249;28424;-76
2022/01/01 09:58:40;;;;;;;5.00;3.90;;;10.60;99.90;;;;;;477655;249;28385;-76
2022/01/01 10:00:41;;;;;;;4.00;3.47;;;10.70;99.90;;;;;;477705;249;28027;-76
2022/01/01 10:02:42;;;;;;;3.97;3.47;;;10.70;99.90;;;;;;477661;249;27929;-75
2022/01/01 10:04:44;;;;;;;5.37;3.47;;;10.80;99.90;;;;;;477661;249;27968;-74
2022/01/01 10:06:45;;;;;;;5.10;3.70;;;10.80;99.90;;;;;;477657;249;28067;-75
2022/01/01 10:08:46;;;;;;;4.57;3.90;;;10.90;99.90;;;;;;477654;249;27930;-75
2022/01/01 10:10:49;;;;;;;4.80;3.70;;;10.80;99.90;;;;;;477639;249;27927;-77
2022/01/01 10:12:49;;;;;;;3.80;3.30;;;10.90;99.90;;;;;;477538;249;28027;-76
2022/01/01 10:14:50;;;;;;;4.70;3.97;;;10.90;99.90;;;;;;477673;249;28026;-76
2022/01/01 10:16:51;;;;;;;7.93;3.83;;;10.90;99.90;;;;;;477622;249;28139;-77
2022/01/01 10:18:53;;;;;;;3.93;3.40;;;10.90;99.90;;;;;;477640;249;28447;-76
2022/01/01 10:20:54;;;;;;;3.97;3.40;;;10.90;99.90;;;;;;477627;249;28316;-76
2022/01/01 10:22:55;;;;;;;4.60;3.20;;;10.90;99.90;;;;;;477663;249;28608;-76
2022/01/01 10:27:59;;;;;;;4.50;3.60;;;11.00;99.90;;;;;;477631;249;27823;-75
2022/01/01 10:29:20;;;;;;;4.40;3.70;;;11.10;99.90;;;;;;472094;249;28490;-74
2022/01/01 10:31:21;;;;;;;4.13;3.60;;;11.10;99.90;;;;;;477635;249;28510;-76
2022/01/01 10:33:23;;;;;;;3.70;3.37;;;11.10;99.90;;;;;;477480;249;28039;-75
2022/01/01 10:35:23;;;;;;;4.57;4.13;;;11.10;99.90;;;;;;476572;249;27902;-77
2022/01/01 10:37:25;;;;;;;5.23;4.00;;;11.10;99.90;;;;;;476536;249;28075;-75
2022/01/01 10:39:26;;;;;;;4.03;3.40;;;11.20;99.90;;;;;;476469;249;28113;-78